createdAt,value
2023-01-18T00:01:13.234Z,8.13
2023-01-18T00:03:45.729Z,8.23
2023-01-18T00:06:22.639Z,7.73
2023-01-18T00:08:52.527Z,7.70
2023-01-18T00:11:24.456Z,7.60
2023-01-18T00:13:54.311Z,7.47
2023-01-18T00:16:26.092Z,7.70
2023-01-18T00:18:57.776Z,7.13
2023-01-18T00:21:32.093Z,6.40
2023-01-18T00:24:04.552Z,6.73
2023-01-18T00:26:35.502Z,8.13
2023-01-18T00:29:10.464Z,7.17
2023-01-18T00:31:41.943Z,7.33
2023-01-18T00:34:11.898Z,7.27
2023-01-18T00:36:44.265Z,6.63
2023-01-18T00:39:15.505Z,6.30
2023-01-18T00:42:05.791Z,7.40
2023-01-18T00:44:33.223Z,6.23
2023-01-18T00:47:02.945Z,6.93
2023-01-18T00:49:34.865Z,7.23
2023-01-18T00:52:07.762Z,7.10
2023-01-18T00:54:39.187Z,6.90
2023-01-18T00:57:13.609Z,6.87
2023-01-18T00:59:46.946Z,6.50
2023-01-18T01:02:17.917Z,6.70
2023-01-18T01:05:00.147Z,6.60
2023-01-18T01:07:32.620Z,6.10
2023-01-18T01:10:11.016Z,6.77
2023-01-18T01:12:56.607Z,6.63
2023-01-18T01:15:39.169Z,5.90
2023-01-18T01:18:21.839Z,6.27
2023-01-18T01:21:04.105Z,6.50
2023-01-18T01:23:49.051Z,7.73
2023-01-18T01:26:18.902Z,6.60
2023-01-18T01:28:54.936Z,6.27
2023-01-18T01:31:25.078Z,6.10
2023-01-18T01:33:55.286Z,6.47
2023-01-18T01:36:28.454Z,6.10
2023-01-18T01:39:03.334Z,5.20
2023-01-18T01:41:35.136Z,6.60
2023-01-18T01:44:07.491Z,7.43
2023-01-18T01:46:45.864Z,8.30
2023-01-18T01:49:19.128Z,6.47
2023-01-18T01:51:51.834Z,7.37
2023-01-18T01:54:28.464Z,7.30
2023-01-18T01:57:06.253Z,8.90
2023-01-18T01:59:40.402Z,14.43
2023-01-18T02:02:10.679Z,12.07
2023-01-18T02:04:46.628Z,21.33
2023-01-18T02:07:17.479Z,21.50
2023-01-18T02:09:50.725Z,23.47
2023-01-18T02:12:20.955Z,29.33
2023-01-18T02:14:50.997Z,22.07
2023-01-18T02:17:32.853Z,15.33
2023-01-18T02:20:34.805Z,16.50
2023-01-18T02:23:28.951Z,14.30
2023-01-18T02:26:32.202Z,11.80
2023-01-18T02:29:17.656Z,11.77
2023-01-18T02:32:05.956Z,12.90
2023-01-18T02:34:42.212Z,13.30
2023-01-18T02:37:21.574Z,12.20
2023-01-18T02:40:05.246Z,11.20
2023-01-18T02:42:49.110Z,11.40
2023-01-18T02:45:38.538Z,10.53
2023-01-18T02:48:10.723Z,9.73
2023-01-18T02:50:40.618Z,9.70
2023-01-18T02:53:10.661Z,10.00
2023-01-18T02:55:49.359Z,10.87
2023-01-18T02:58:25.402Z,9.47
2023-01-18T03:01:05.196Z,10.10
2023-01-18T03:03:35.155Z,10.50
2023-01-18T03:06:08.985Z,9.67
2023-01-18T03:08:43.386Z,10.73
2023-01-18T03:11:17.844Z,10.93
2023-01-18T03:14:01.953Z,10.70
2023-01-18T03:16:43.514Z,11.97
2023-01-18T03:19:33.113Z,12.63
2023-01-18T03:22:05.738Z,12.47
2023-01-18T03:24:41.426Z,13.33
2023-01-18T03:27:24.755Z,10.87
2023-01-18T03:30:07.029Z,10.23
2023-01-18T03:32:53.799Z,10.47
2023-01-18T03:35:27.608Z,10.20
2023-01-18T03:37:59.500Z,7.63
2023-01-18T03:40:32.155Z,6.77
2023-01-18T03:43:08.678Z,7.30
2023-01-18T03:45:43.151Z,7.07
2023-01-18T03:48:16.423Z,7.00
2023-01-18T03:50:52.464Z,6.37
2023-01-18T03:53:32.682Z,7.00
2023-01-18T03:56:07.995Z,7.03
2023-01-18T03:58:40.568Z,6.60
2023-01-18T04:01:10.534Z,6.73
2023-01-18T04:03:42.956Z,7.00
2023-01-18T04:06:12.949Z,6.63
2023-01-18T04:08:42.899Z,6.63
2023-01-18T04:11:12.617Z,6.70
2023-01-18T04:13:42.423Z,6.60
2023-01-18T04:16:12.454Z,5.57
2023-01-18T04:18:44.800Z,6.97
2023-01-18T04:21:14.629Z,5.47
2023-01-18T04:23:44.424Z,6.10
2023-01-18T04:26:16.824Z,7.00
2023-01-18T04:28:46.673Z,5.73
2023-01-18T04:31:16.839Z,7.07
2023-01-18T04:33:51.633Z,7.50
2023-01-18T04:36:22.099Z,6.23
2023-01-18T04:38:55.963Z,6.83
2023-01-18T04:41:26.017Z,6.30
2023-01-18T04:43:55.680Z,5.13
2023-01-18T04:46:25.591Z,5.80
2023-01-18T04:48:57.956Z,5.87
2023-01-18T04:51:27.725Z,6.07
2023-01-18T04:53:57.758Z,6.00
2023-01-18T04:56:27.477Z,6.20
2023-01-18T04:58:58.199Z,6.27
2023-01-18T05:01:29.832Z,5.73
2023-01-18T05:04:02.393Z,5.30
2023-01-18T05:06:32.130Z,6.53
2023-01-18T05:09:01.950Z,5.43
2023-01-18T05:11:31.723Z,5.53
2023-01-18T05:14:01.756Z,5.57
2023-01-18T05:16:31.489Z,5.20
2023-01-18T05:19:04.300Z,5.43
2023-01-18T05:21:34.121Z,5.33
2023-01-18T05:24:03.898Z,5.70
2023-01-18T05:26:33.843Z,6.07
2023-01-18T05:29:03.499Z,6.07
2023-01-18T05:31:33.247Z,4.80
2023-01-18T05:34:06.062Z,5.73
2023-01-18T05:36:35.761Z,5.53
2023-01-18T05:39:05.725Z,6.30
2023-01-18T05:41:35.495Z,5.70
2023-01-18T05:44:05.302Z,5.53
2023-01-18T05:46:35.165Z,5.30
2023-01-18T05:49:07.559Z,6.07
2023-01-18T05:51:38.255Z,5.43
2023-01-18T05:54:08.055Z,5.63
2023-01-18T05:56:38.010Z,5.87
2023-01-18T05:59:07.792Z,5.67
2023-01-18T06:01:37.729Z,5.60
2023-01-18T06:04:10.329Z,5.50
2023-01-18T06:06:40.101Z,6.33
2023-01-18T06:09:09.991Z,5.93
2023-01-18T06:11:39.891Z,6.83
2023-01-18T06:14:09.793Z,5.70
2023-01-18T06:16:39.570Z,5.90
2023-01-18T06:19:12.294Z,6.03
2023-01-18T06:21:42.076Z,5.50
2023-01-18T06:24:12.105Z,6.77
2023-01-18T06:26:42.169Z,5.90
2023-01-18T06:29:12.148Z,6.57
2023-01-18T06:31:42.200Z,7.53
2023-01-18T06:34:14.649Z,6.03
2023-01-18T06:36:45.292Z,6.07
2023-01-18T06:39:15.152Z,6.80
2023-01-18T06:41:44.919Z,7.83
2023-01-18T06:44:14.968Z,7.63
2023-01-18T06:46:46.713Z,7.50
2023-01-18T06:49:19.089Z,7.27
2023-01-18T06:51:48.964Z,7.47
2023-01-18T06:54:18.783Z,5.83
2023-01-18T06:56:48.556Z,7.57
2023-01-18T06:59:18.454Z,6.97
2023-01-18T07:01:48.506Z,7.33
2023-01-18T07:04:21.044Z,6.50
2023-01-18T07:06:50.968Z,7.70
2023-01-18T07:09:20.883Z,7.00
2023-01-18T07:11:50.672Z,7.20
2023-01-18T07:14:20.644Z,6.73
2023-01-18T07:16:50.438Z,7.50
2023-01-18T07:19:22.795Z,6.77
2023-01-18T07:21:54.112Z,6.40
2023-01-18T07:24:24.289Z,5.70
2023-01-18T07:26:54.047Z,7.07
2023-01-18T07:29:24.305Z,7.33
2023-01-18T07:31:54.283Z,7.50
2023-01-18T07:34:26.904Z,7.23
2023-01-18T07:36:56.718Z,7.20
2023-01-18T07:39:26.534Z,7.70
2023-01-18T07:41:56.297Z,8.47
2023-01-18T07:44:26.569Z,7.63
2023-01-18T07:46:56.283Z,6.83
2023-01-18T07:49:28.700Z,8.87
2023-01-18T07:51:58.458Z,7.97
2023-01-18T07:54:28.149Z,7.53
2023-01-18T07:56:57.855Z,7.70
2023-01-18T07:59:28.048Z,7.00
2023-01-18T08:01:58.225Z,8.73
2023-01-18T08:04:30.735Z,7.93
2023-01-18T08:07:00.727Z,8.17
2023-01-18T08:09:30.573Z,9.30
2023-01-18T08:12:00.331Z,8.13
2023-01-18T08:14:30.596Z,9.50
2023-01-18T08:17:00.471Z,9.50
2023-01-18T08:19:32.892Z,8.63
2023-01-18T08:22:02.840Z,7.33
2023-01-18T08:24:32.643Z,9.60
2023-01-18T08:27:02.338Z,9.17
2023-01-18T08:29:32.161Z,9.13
2023-01-18T08:32:02.603Z,9.60
2023-01-18T08:34:34.962Z,9.03
2023-01-18T08:37:04.967Z,10.70
2023-01-18T08:39:34.820Z,9.63
2023-01-18T08:42:04.668Z,9.93
2023-01-18T08:44:34.846Z,9.03
2023-01-18T08:47:04.556Z,8.83
2023-01-18T08:49:37.155Z,9.97
2023-01-18T08:52:07.232Z,9.80
2023-01-18T08:54:36.988Z,10.47
2023-01-18T08:57:08.211Z,9.43
2023-01-18T08:59:37.926Z,10.93
2023-01-18T09:02:07.772Z,10.63
2023-01-18T09:04:40.217Z,11.23
2023-01-18T09:07:10.252Z,11.00
2023-01-18T09:09:39.991Z,11.30
2023-01-18T09:12:10.048Z,11.30
2023-01-18T09:14:40.258Z,11.70
2023-01-18T09:17:10.024Z,11.37
2023-01-18T09:19:42.506Z,9.50
2023-01-18T09:22:13.676Z,10.83
2023-01-18T09:24:43.609Z,10.80
2023-01-18T09:27:14.245Z,10.70
2023-01-18T09:29:44.062Z,10.40
2023-01-18T09:32:14.120Z,12.50
2023-01-18T09:34:49.377Z,9.20
2023-01-18T09:37:19.235Z,11.47
2023-01-18T09:39:52.120Z,13.03
2023-01-18T09:42:25.198Z,11.40
2023-01-18T09:44:59.806Z,10.70
2023-01-18T09:47:32.222Z,9.53
2023-01-18T09:50:11.163Z,11.57
2023-01-18T09:52:49.298Z,11.50
2023-01-18T09:55:27.741Z,12.27
2023-01-18T09:58:14.408Z,12.00
2023-01-18T10:00:47.892Z,12.17
2023-01-18T10:03:22.523Z,9.47
2023-01-18T10:06:09.044Z,12.13
2023-01-18T10:08:44.083Z,11.67
2023-01-18T10:11:21.853Z,12.43
2023-01-18T10:13:59.911Z,11.97
2023-01-18T10:16:29.832Z,12.10
2023-01-18T10:19:01.706Z,11.33
2023-01-18T10:21:50.301Z,12.60
2023-01-18T10:24:30.988Z,13.13
2023-01-18T10:27:16.288Z,11.83
2023-01-18T10:29:56.811Z,12.70
2023-01-18T10:32:28.925Z,11.63
2023-01-18T10:35:00.553Z,13.17
2023-01-18T10:37:42.835Z,12.33
2023-01-18T10:40:15.032Z,10.47
2023-01-18T10:42:48.552Z,13.37
2023-01-18T10:45:21.345Z,12.40
2023-01-18T10:47:52.079Z,13.80
2023-01-18T10:50:24.910Z,12.90
2023-01-18T10:52:57.771Z,10.37
2023-01-18T10:55:29.057Z,12.93
2023-01-18T10:57:59.309Z,12.47
2023-01-18T11:00:36.461Z,13.83
2023-01-18T11:03:10.099Z,12.60
2023-01-18T11:05:42.894Z,10.93
2023-01-18T11:08:25.574Z,12.17
2023-01-18T11:11:03.754Z,12.63
2023-01-18T11:13:37.781Z,12.67
2023-01-18T11:16:13.914Z,12.73
2023-01-18T11:18:58.712Z,12.60
2023-01-18T11:21:33.412Z,5.87
2023-01-18T11:24:15.679Z,13.33
2023-01-18T11:26:59.199Z,11.37
2023-01-18T11:29:31.864Z,11.90
2023-01-18T11:32:07.123Z,13.10
2023-01-18T11:34:41.202Z,13.13
2023-01-18T11:37:34.507Z,11.97
2023-01-18T11:40:28.177Z,12.90
2023-01-18T11:43:03.745Z,11.80
2023-01-18T11:45:36.564Z,12.60
2023-01-18T11:48:15.217Z,7.80
2023-01-18T11:50:49.819Z,12.03
2023-01-18T11:53:32.486Z,11.17
2023-01-18T11:56:09.591Z,12.23
2023-01-18T11:58:40.072Z,9.93
2023-01-18T12:01:27.089Z,11.70
2023-01-18T12:04:02.959Z,11.77
2023-01-18T12:06:44.011Z,12.83
2023-01-18T12:09:27.945Z,7.13
2023-01-18T12:12:19.212Z,12.17
2023-01-18T12:15:02.092Z,12.37
2023-01-18T12:18:01.264Z,11.87
2023-01-18T12:20:47.042Z,10.87
2023-01-18T12:23:55.056Z,10.57
2023-01-18T12:26:51.410Z,11.17
2023-01-18T12:29:59.932Z,10.40
2023-01-18T12:32:49.681Z,11.23
2023-01-18T12:35:39.847Z,9.90
2023-01-18T12:38:23.223Z,9.70
2023-01-18T12:41:21.568Z,10.00
2023-01-18T12:44:08.361Z,9.90
2023-01-18T12:46:46.908Z,7.23
2023-01-18T12:49:21.585Z,12.20
2023-01-18T12:52:09.199Z,9.90
2023-01-18T12:54:50.585Z,11.10
2023-01-18T12:57:23.180Z,10.70
2023-01-18T12:59:57.391Z,11.70
2023-01-18T13:02:35.064Z,10.03
2023-01-18T13:05:09.432Z,10.17
2023-01-18T13:07:44.825Z,8.30
2023-01-18T13:10:22.266Z,9.87
2023-01-18T13:12:53.868Z,9.27
2023-01-18T13:15:34.390Z,9.33
2023-01-18T13:18:14.042Z,8.57
2023-01-18T13:20:56.207Z,8.77
2023-01-18T13:23:39.889Z,9.53
2023-01-18T13:26:22.092Z,10.23
2023-01-18T13:29:08.509Z,10.20
2023-01-18T13:31:39.008Z,8.87
2023-01-18T13:34:28.983Z,10.30
2023-01-18T13:37:13.829Z,9.87
2023-01-18T13:39:51.423Z,8.70
2023-01-18T13:42:38.500Z,7.27
2023-01-18T13:45:23.283Z,7.30
2023-01-18T13:48:03.518Z,7.13
2023-01-18T13:50:52.376Z,7.00
2023-01-18T13:53:27.255Z,5.40
2023-01-18T13:56:36.777Z,5.20
2023-01-18T13:59:19.505Z,5.33
2023-01-18T14:01:51.721Z,4.17
2023-01-18T14:04:33.182Z,5.23
2023-01-18T14:07:08.100Z,4.53
2023-01-18T14:09:42.988Z,4.87
2023-01-18T14:12:14.850Z,4.50
2023-01-18T14:15:03.381Z,4.57
2023-01-18T14:17:46.783Z,4.67
2023-01-18T14:20:55.075Z,4.50
2023-01-18T14:23:38.933Z,4.60
2023-01-18T14:26:10.861Z,5.83
2023-01-18T14:28:48.608Z,5.27
2023-01-18T14:31:23.314Z,5.80
2023-01-18T14:33:53.254Z,4.87
2023-01-18T14:36:25.059Z,5.67
2023-01-18T14:39:17.772Z,6.17
2023-01-18T14:41:50.716Z,4.87
2023-01-18T14:44:24.059Z,4.93
2023-01-18T14:46:55.598Z,4.70
2023-01-18T14:49:29.086Z,4.87
2023-01-18T14:51:59.789Z,5.63
2023-01-18T14:54:32.258Z,5.43
2023-01-18T14:57:09.627Z,4.60
2023-01-18T14:59:39.834Z,4.90
2023-01-18T15:02:19.331Z,4.90
2023-01-18T15:04:49.736Z,3.30
2023-01-18T15:07:22.790Z,5.27
2023-01-18T15:09:55.433Z,5.17
2023-01-18T15:12:31.918Z,5.27
2023-01-18T15:15:09.378Z,3.70
2023-01-18T15:17:40.449Z,6.00
2023-01-18T15:20:17.289Z,5.57
2023-01-18T15:22:50.899Z,4.93
2023-01-18T15:25:29.312Z,5.97
2023-01-18T15:28:14.765Z,5.50
2023-01-18T15:30:53.496Z,5.00
2023-01-18T15:33:26.408Z,5.70
2023-01-18T15:36:01.145Z,5.40
2023-01-18T15:38:31.572Z,5.67
2023-01-18T15:41:09.072Z,5.40
2023-01-18T15:43:44.063Z,5.50
2023-01-18T15:46:17.168Z,5.43
2023-01-18T15:48:53.720Z,5.40
2023-01-18T15:51:44.227Z,4.97
2023-01-18T15:54:20.857Z,7.30
2023-01-18T15:56:53.928Z,8.03
2023-01-18T15:59:25.697Z,6.40
2023-01-18T16:02:19.000Z,6.10
2023-01-18T16:04:49.591Z,5.50
2023-01-18T16:07:39.270Z,4.83
2023-01-18T16:10:31.259Z,5.33
2023-01-18T16:13:31.100Z,5.70
2023-01-18T16:16:14.454Z,5.57
2023-01-18T16:18:46.329Z,6.07
2023-01-18T16:21:26.323Z,6.40
2023-01-18T16:23:57.123Z,5.70
2023-01-18T16:26:31.827Z,8.10
2023-01-18T16:29:10.063Z,6.10
2023-01-18T16:31:45.951Z,5.20
2023-01-18T16:34:27.437Z,5.17
2023-01-18T16:36:57.365Z,4.50
2023-01-18T16:39:27.272Z,5.27
2023-01-18T16:42:00.376Z,5.53
2023-01-18T16:44:32.077Z,6.17
2023-01-18T16:47:05.029Z,4.93
2023-01-18T16:49:35.331Z,8.07
2023-01-18T16:52:07.639Z,9.00
2023-01-18T16:54:37.368Z,6.70
2023-01-18T16:57:07.164Z,6.13
2023-01-18T16:59:37.282Z,7.10
2023-01-18T17:02:09.968Z,5.97
2023-01-18T17:04:39.836Z,6.10
2023-01-18T17:07:09.671Z,5.43
2023-01-18T17:09:47.833Z,9.77
2023-01-18T17:12:19.077Z,9.27
2023-01-18T17:14:48.959Z,4.30
2023-01-18T17:17:21.769Z,4.73
2023-01-18T17:19:51.705Z,4.87
2023-01-18T17:22:21.541Z,4.70
2023-01-18T17:24:53.544Z,4.20
2023-01-18T17:27:23.376Z,4.77
2023-01-18T17:29:53.141Z,4.63
2023-01-18T17:32:25.530Z,4.30
2023-01-18T17:34:55.356Z,4.20
2023-01-18T17:37:25.116Z,4.90
2023-01-18T17:40:11.133Z,3.83
2023-01-18T17:42:43.863Z,4.37
2023-01-18T17:45:14.612Z,4.50
2023-01-18T17:47:48.132Z,3.83
2023-01-18T17:50:24.924Z,3.63
2023-01-18T17:52:55.454Z,4.20
2023-01-18T17:55:34.269Z,4.57
2023-01-18T17:58:05.500Z,4.47
2023-01-18T18:00:35.336Z,4.27
2023-01-18T18:03:08.083Z,5.57
2023-01-18T18:05:38.598Z,4.43
2023-01-18T18:08:09.962Z,3.97
2023-01-18T18:10:40.001Z,3.13
2023-01-18T18:13:09.712Z,3.67
2023-01-18T18:15:39.639Z,4.20
2023-01-18T18:18:22.583Z,4.27
2023-01-18T18:20:53.536Z,3.90
2023-01-18T18:23:23.306Z,4.40
2023-01-18T18:25:53.131Z,3.83
2023-01-18T18:28:24.673Z,3.63
2023-01-18T18:30:56.806Z,3.57
2023-01-18T18:33:31.434Z,4.80
2023-01-18T18:36:02.246Z,4.50
2023-01-18T18:38:31.991Z,4.10
2023-01-18T18:41:06.627Z,4.80
2023-01-18T18:43:37.216Z,4.43
2023-01-18T18:46:07.612Z,4.20
2023-01-18T18:48:40.291Z,5.10
2023-01-18T18:51:10.082Z,4.23
2023-01-18T18:53:41.176Z,3.93
2023-01-18T18:56:12.136Z,4.17
2023-01-18T18:58:42.307Z,4.03
2023-01-18T19:01:22.140Z,4.40
2023-01-18T19:03:56.318Z,5.20
2023-01-18T19:06:27.268Z,4.83
2023-01-18T19:08:57.655Z,5.87
2023-01-18T19:11:27.408Z,4.73
2023-01-18T19:13:58.711Z,4.93
2023-01-18T19:16:28.623Z,4.40
2023-01-18T19:19:01.301Z,4.63
2023-01-18T19:21:32.533Z,4.90
2023-01-18T19:24:02.464Z,5.60
2023-01-18T19:26:32.217Z,5.60
2023-01-18T19:29:02.136Z,5.23
2023-01-18T19:31:32.847Z,5.13
2023-01-18T19:34:05.357Z,5.13
2023-01-18T19:36:35.271Z,6.00
2023-01-18T19:39:09.225Z,6.67
2023-01-18T19:41:44.445Z,6.03
2023-01-18T19:44:14.757Z,6.23
2023-01-18T19:46:44.629Z,5.23
2023-01-18T19:49:20.126Z,5.20
2023-01-18T19:51:50.418Z,6.33
2023-01-18T19:54:20.480Z,5.87
2023-01-18T19:56:51.464Z,5.53
2023-01-18T19:59:21.244Z,6.37
2023-01-18T20:01:52.588Z,6.13
2023-01-18T20:04:25.123Z,6.73
2023-01-18T20:06:56.326Z,6.43
2023-01-18T20:09:35.091Z,4.50
2023-01-18T20:12:13.429Z,5.30
2023-01-18T20:14:44.916Z,5.23
2023-01-18T20:17:16.161Z,5.30
2023-01-18T20:19:51.026Z,5.57
2023-01-18T20:22:20.827Z,5.83
2023-01-18T20:24:50.705Z,6.17
2023-01-18T20:27:22.250Z,5.63
2023-01-18T20:29:52.068Z,5.63
2023-01-18T20:32:22.635Z,5.33
2023-01-18T20:34:55.485Z,5.63
2023-01-18T20:37:25.588Z,5.43
2023-01-18T20:39:56.195Z,5.97
2023-01-18T20:42:26.359Z,5.50
2023-01-18T20:45:00.596Z,5.37
2023-01-18T20:47:30.518Z,5.23
2023-01-18T20:50:03.442Z,4.47
2023-01-18T20:52:36.397Z,5.03
2023-01-18T20:55:06.766Z,4.77
2023-01-18T20:57:36.632Z,4.73
2023-01-18T21:00:07.390Z,5.03
2023-01-18T21:02:37.349Z,5.13
2023-01-18T21:05:10.529Z,5.10
2023-01-18T21:07:41.775Z,4.13
2023-01-18T21:10:13.769Z,5.40
2023-01-18T21:12:45.454Z,4.90
2023-01-18T21:15:15.892Z,5.50
2023-01-18T21:17:47.095Z,5.30
2023-01-18T21:20:19.957Z,4.93
2023-01-18T21:22:49.967Z,5.47
2023-01-18T21:25:20.150Z,5.07
2023-01-18T21:27:50.008Z,5.00
2023-01-18T21:30:20.202Z,5.00
2023-01-18T21:32:50.498Z,5.93
2023-01-18T21:35:23.331Z,5.30
2023-01-18T21:37:53.067Z,5.13
2023-01-18T21:40:23.052Z,5.37
2023-01-18T21:43:05.199Z,5.63
2023-01-18T21:45:47.466Z,5.67
2023-01-18T21:48:18.310Z,5.23
2023-01-18T21:51:05.569Z,5.70
2023-01-18T21:53:48.168Z,5.50
2023-01-18T21:56:18.061Z,5.00
2023-01-18T21:58:58.632Z,4.73
2023-01-18T22:01:34.052Z,5.67
2023-01-18T22:04:21.275Z,6.10
2023-01-18T22:06:54.181Z,5.67
2023-01-18T22:09:24.288Z,5.97
2023-01-18T22:11:56.072Z,5.40
2023-01-18T22:14:31.792Z,5.80
2023-01-18T22:17:02.343Z,5.53
2023-01-18T22:19:32.232Z,6.23
2023-01-18T22:22:04.876Z,6.17
2023-01-18T22:24:34.658Z,6.80
2023-01-18T22:27:11.202Z,5.30
2023-01-18T22:29:41.035Z,5.87
2023-01-18T22:32:10.891Z,2.83
2023-01-18T22:34:41.811Z,6.60
2023-01-18T22:37:14.309Z,6.50
2023-01-18T22:39:44.175Z,6.60
2023-01-18T22:42:15.721Z,7.67
2023-01-18T22:44:48.757Z,7.37
2023-01-18T22:47:19.072Z,7.07
2023-01-18T22:49:50.483Z,6.53
2023-01-18T22:52:23.061Z,7.23
2023-01-18T22:54:53.250Z,5.43
2023-01-18T22:57:23.065Z,7.70
2023-01-18T22:59:53.354Z,7.13
2023-01-18T23:02:23.259Z,7.53
2023-01-18T23:04:57.224Z,6.90
2023-01-18T23:07:32.943Z,6.90
2023-01-18T23:10:02.789Z,7.67
2023-01-18T23:12:32.904Z,7.13
2023-01-18T23:15:23.981Z,7.03
2023-01-18T23:17:57.909Z,7.63
2023-01-18T23:20:27.944Z,7.80
2023-01-18T23:23:02.944Z,7.17
2023-01-18T23:25:34.958Z,7.43
2023-01-18T23:28:06.188Z,7.40
2023-01-18T23:30:35.869Z,6.73
2023-01-18T23:33:05.632Z,6.37
2023-01-18T23:35:37.646Z,7.10
2023-01-18T23:38:12.544Z,5.57
2023-01-18T23:40:55.764Z,7.07
2023-01-18T23:43:38.987Z,7.63
2023-01-18T23:46:21.299Z,6.73
2023-01-18T23:49:03.717Z,7.23
2023-01-18T23:51:47.418Z,6.50
2023-01-18T23:54:19.947Z,6.60
2023-01-18T23:56:50.484Z,5.93
2023-01-18T23:59:20.524Z,6.17
